Startpagina
METAR-TAF:

METAR-TAF

Vliegvelden :

Flughafen Münster-Osnabrück

Münster-Osnabrück, Duitsland

breedte: 52-08N, lengte: 007-42E, hoogte: 48 m

Actueel weer

Dit bericht is 22 minuten geleden gemaakt, om 15:20 UTC
Wind 5 kt uit het noordnoordoosten
Temperatuur 1°C
Vochtigheid 69%
Druk 1019 hPa
Zicht 10 km of meer
geen wolken onder 1500 m en geen cumulonimbus

METAR: EDDG 201520Z 03005KT CAVOK 01/M04 Q1019 NOSIG

Tijdstip: 16:42 (15:42 UTC)

Verwachting

Dit bericht is 4 uur en het 42 minuten geleden gemaakt, om 11:00 UTC
Verwachting geldig van 20 om 12 UTC tot 21 om 12 UTC
Wind 5 kt uit het oostnoordoosten
Zicht 10 km of meer
geen wolken onder 1500 m en geen cumulonimbus
Wijzigt naar
van 20 om 14 UTC tot 20 om 17 UTC
Wind 3 kt uit variabele richting

TAF: EDDG 201100Z 2012/2112 07005KT CAVOK BECMG 2014/2017 VRB03KT

Waarnemingen en weersverwachtingen van meer dan 4000 vliegvelden (METAR en TAF).

De beschikbare stations zijn de gele en rode punten op de kaart.

Ga met uw muis naar het station om de naam te zien.

Klik dan om waarnemingen en weersverwachtingen te zien.

kaart wijzigen: klik op de groene knoppen met een zwart kruis om in te zoomen, op de groene knop met een streepje om uit te zoomen of op de groene pijlen voor aangrenzende kaarten.


METAR-TAF: